createdAt,value
2022-10-01T00:02:18.676Z,64.56
2022-10-01T00:04:53.857Z,64.35
2022-10-01T00:07:31.707Z,64.40
2022-10-01T00:10:04.731Z,63.92
2022-10-01T00:12:36.101Z,64.23
2022-10-01T00:15:13.306Z,64.46
2022-10-01T00:17:44.646Z,64.33
2022-10-01T00:20:14.857Z,64.51
2022-10-01T00:22:47.181Z,64.44
2022-10-01T00:25:18.820Z,64.53
2022-10-01T00:27:49.484Z,64.31
2022-10-01T00:30:20.067Z,64.31
2022-10-01T00:32:51.142Z,64.64
2022-10-01T00:35:31.988Z,64.82
2022-10-01T00:38:03.411Z,64.52
2022-10-01T00:40:34.578Z,64.80
2022-10-01T00:43:23.907Z,64.94
2022-10-01T00:45:58.904Z,64.72
2022-10-01T00:48:31.850Z,64.52
2022-10-01T00:51:01.932Z,64.85
2022-10-01T00:53:31.717Z,64.63
2022-10-01T00:56:01.818Z,64.92
2022-10-01T00:58:30.790Z,65.17
2022-10-01T01:01:03.927Z,65.47
2022-10-01T01:03:34.801Z,65.13
2022-10-01T01:06:03.654Z,65.15
2022-10-01T01:08:33.793Z,65.16
2022-10-01T01:11:25.045Z,65.11
2022-10-01T01:14:06.912Z,65.22
2022-10-01T01:16:58.181Z,65.22
2022-10-01T01:20:14.257Z,65.38
2022-10-01T01:22:51.931Z,65.37
2022-10-01T01:25:31.400Z,65.18
2022-10-01T01:28:25.603Z,65.48
2022-10-01T01:31:16.746Z,65.15
2022-10-01T01:33:50.032Z,64.99
2022-10-01T01:36:26.779Z,65.30
2022-10-01T01:39:05.315Z,65.19
2022-10-01T01:41:38.580Z,65.46
2022-10-01T01:44:10.929Z,65.56
2022-10-01T01:46:44.892Z,65.45
2022-10-01T01:49:19.637Z,65.72
2022-10-01T01:52:13.207Z,65.68
2022-10-01T01:54:47.645Z,65.55
2022-10-01T01:57:21.982Z,65.83
2022-10-01T01:59:53.148Z,65.63
2022-10-01T02:02:28.093Z,65.45
2022-10-01T02:05:19.567Z,65.61
2022-10-01T02:08:40.861Z,65.55
2022-10-01T02:11:25.778Z,65.58
2022-10-01T02:14:33.414Z,65.64
2022-10-01T02:17:40.423Z,65.77
2022-10-01T02:20:49.765Z,65.73
2022-10-01T02:23:59.703Z,65.93
2022-10-01T02:26:34.819Z,65.69
2022-10-01T02:29:21.389Z,65.83
2022-10-01T02:32:13.007Z,65.71
2022-10-01T02:34:45.759Z,65.85
2022-10-01T02:37:18.068Z,65.78
2022-10-01T02:39:49.117Z,65.83
2022-10-01T02:42:20.818Z,65.93
2022-10-01T02:44:53.635Z,65.97
2022-10-01T02:47:35.138Z,66.16
2022-10-01T02:50:09.250Z,66.01
2022-10-01T02:52:38.108Z,66.34
2022-10-01T02:55:24.237Z,66.08
2022-10-01T02:57:55.822Z,66.21
2022-10-01T03:00:28.377Z,66.12
2022-10-01T03:03:01.453Z,66.21
2022-10-01T03:05:33.688Z,66.37
2022-10-01T03:08:15.468Z,66.30
2022-10-01T03:10:49.377Z,66.38
2022-10-01T03:13:19.883Z,66.21
2022-10-01T03:15:52.798Z,66.46
2022-10-01T03:22:33.155Z,66.63
2022-10-01T03:25:06.297Z,66.72
2022-10-01T03:27:35.662Z,66.63
2022-10-01T03:30:08.285Z,66.70
2022-10-01T03:32:37.500Z,66.67
2022-10-01T03:35:10.541Z,66.68
2022-10-01T03:37:43.140Z,66.83
2022-10-01T03:40:15.700Z,66.90
2022-10-01T03:43:04.093Z,66.79
2022-10-01T03:45:35.754Z,66.87
2022-10-01T03:48:10.249Z,66.96
2022-10-01T03:50:40.983Z,66.88
2022-10-01T03:53:12.947Z,67.00
2022-10-01T03:56:07.349Z,67.01
2022-10-01T03:58:39.764Z,66.83
2022-10-01T04:01:10.467Z,67.06
2022-10-01T04:03:44.127Z,67.14
2022-10-01T04:06:18.335Z,66.99
2022-10-01T04:08:48.504Z,67.12
2022-10-01T04:11:19.234Z,67.14
2022-10-01T04:13:49.806Z,67.03
2022-10-01T04:16:21.225Z,67.10
2022-10-01T04:18:51.475Z,67.18
2022-10-01T04:21:22.148Z,67.50
2022-10-01T04:23:52.434Z,67.54
2022-10-01T04:26:23.833Z,67.76
2022-10-01T04:28:54.615Z,67.94
2022-10-01T04:31:25.801Z,67.95
2022-10-01T04:33:55.687Z,67.89
2022-10-01T04:36:26.684Z,67.59
2022-10-01T04:39:01.641Z,67.65
2022-10-01T04:41:32.081Z,67.66
2022-10-01T04:44:01.829Z,67.90
2022-10-01T04:46:32.415Z,68.01
2022-10-01T04:49:06.596Z,68.17
2022-10-01T04:51:34.594Z,68.17
2022-10-01T04:54:04.036Z,67.91
2022-10-01T04:56:33.519Z,67.79
2022-10-01T04:59:03.463Z,67.73
2022-10-01T05:01:32.965Z,67.75
2022-10-01T05:04:01.194Z,67.85
2022-10-01T05:06:32.190Z,67.64
2022-10-01T05:09:02.495Z,67.57
2022-10-01T05:11:34.444Z,67.68
2022-10-01T05:14:04.018Z,67.58
2022-10-01T05:16:33.274Z,67.64
2022-10-01T05:19:29.436Z,67.70
2022-10-01T05:21:58.156Z,67.79
2022-10-01T05:24:28.809Z,67.64
2022-10-01T05:26:57.678Z,67.69
2022-10-01T05:29:27.931Z,67.80
2022-10-01T05:31:58.032Z,67.81
2022-10-01T05:34:27.595Z,67.92
2022-10-01T05:36:57.242Z,68.01
2022-10-01T05:39:27.354Z,68.01
2022-10-01T05:41:55.303Z,68.08
2022-10-01T05:44:24.134Z,68.12
2022-10-01T05:46:53.819Z,68.11
2022-10-01T05:49:26.534Z,68.37
2022-10-01T05:51:55.113Z,68.15
2022-10-01T05:54:27.044Z,67.99
2022-10-01T05:56:58.067Z,68.17
2022-10-01T05:59:31.695Z,68.22
2022-10-01T06:02:04.444Z,68.31
2022-10-01T06:04:34.811Z,68.10
2022-10-01T06:07:07.383Z,68.36
2022-10-01T06:09:38.476Z,68.27
2022-10-01T06:12:09.815Z,68.19
2022-10-01T06:14:40.013Z,68.31
2022-10-01T06:17:10.933Z,68.60
2022-10-01T06:19:42.088Z,68.48
2022-10-01T06:22:12.215Z,66.28
2022-10-01T06:24:41.201Z,64.36
2022-10-01T06:27:10.131Z,62.91
2022-10-01T06:29:39.735Z,61.79
2022-10-01T06:32:13.248Z,60.80
2022-10-01T06:34:41.744Z,60.09
2022-10-01T06:37:11.659Z,59.36
2022-10-01T06:39:41.035Z,59.02
2022-10-01T06:42:10.563Z,58.27
2022-10-01T06:44:38.282Z,58.09
2022-10-01T06:47:08.849Z,57.48
2022-10-01T06:49:38.340Z,57.34
2022-10-01T06:52:26.350Z,56.86
2022-10-01T06:54:55.232Z,56.71
2022-10-01T06:57:23.408Z,56.16
2022-10-01T06:59:51.885Z,56.27
2022-10-01T07:02:29.309Z,56.29
2022-10-01T07:05:01.523Z,55.95
2022-10-01T07:07:36.043Z,55.75
2022-10-01T07:10:06.818Z,54.73
2022-10-01T07:12:36.515Z,54.62
2022-10-01T07:15:07.422Z,54.86
2022-10-01T07:17:45.095Z,54.63
2022-10-01T07:20:21.217Z,54.60
2022-10-01T07:22:56.162Z,53.83
2022-10-01T07:25:26.091Z,53.66
2022-10-01T07:27:59.924Z,53.91
2022-10-01T07:30:29.192Z,53.37
2022-10-01T07:32:58.364Z,52.81
2022-10-01T07:35:25.997Z,53.18
2022-10-01T07:37:56.989Z,52.97
2022-10-01T07:40:27.471Z,53.07
2022-10-01T07:42:58.741Z,53.25
2022-10-01T07:45:27.722Z,53.72
2022-10-01T07:47:59.915Z,53.44
2022-10-01T07:50:31.016Z,54.59
2022-10-01T07:53:00.151Z,56.07
2022-10-01T07:55:32.508Z,57.05
2022-10-01T07:58:04.388Z,57.84
2022-10-01T08:00:34.656Z,57.27
2022-10-01T08:03:05.965Z,57.60
2022-10-01T08:05:36.299Z,56.94
2022-10-01T08:08:07.840Z,54.82
2022-10-01T08:10:39.701Z,53.84
2022-10-01T08:13:17.277Z,52.82
2022-10-01T08:15:47.724Z,51.40
2022-10-01T08:18:16.143Z,51.20
2022-10-01T08:20:45.149Z,50.91
2022-10-01T08:23:14.554Z,50.46
2022-10-01T08:25:45.990Z,50.60
2022-10-01T08:28:14.383Z,50.47
2022-10-01T08:30:43.631Z,48.76
2022-10-01T08:33:13.893Z,48.69
2022-10-01T08:35:43.296Z,48.91
2022-10-01T08:38:13.551Z,47.77
2022-10-01T08:40:46.215Z,47.53
2022-10-01T08:43:24.234Z,47.16
2022-10-01T08:46:00.183Z,47.66
2022-10-01T08:48:38.390Z,47.26
2022-10-01T08:51:19.313Z,46.77
2022-10-01T08:53:55.163Z,47.01
2022-10-01T08:56:34.965Z,47.27
2022-10-01T08:59:27.218Z,47.24
2022-10-01T09:01:58.807Z,46.98
2022-10-01T09:04:28.021Z,45.96
2022-10-01T09:07:10.892Z,44.84
2022-10-01T09:10:17.052Z,43.55
2022-10-01T09:12:56.102Z,43.94
2022-10-01T09:15:32.962Z,43.61
2022-10-01T09:18:23.577Z,43.82
2022-10-01T09:21:02.633Z,44.31
2022-10-01T09:23:46.771Z,44.74
2022-10-01T09:26:15.579Z,44.88
2022-10-01T09:28:47.512Z,44.64
2022-10-01T09:31:39.699Z,44.01
2022-10-01T09:34:15.206Z,43.38
2022-10-01T09:37:04.134Z,42.49
2022-10-01T09:39:49.003Z,42.55
2022-10-01T09:42:18.044Z,42.77
2022-10-01T09:44:47.514Z,41.41
2022-10-01T09:47:22.461Z,41.20
2022-10-01T09:49:51.783Z,41.54
2022-10-01T09:52:33.246Z,40.98
2022-10-01T09:55:20.660Z,39.93
2022-10-01T09:58:12.148Z,40.56
2022-10-01T10:00:41.331Z,40.68
2022-10-01T10:03:09.418Z,40.31
2022-10-01T10:05:43.867Z,40.05
2022-10-01T10:08:28.201Z,39.74
2022-10-01T10:11:03.141Z,40.24
2022-10-01T10:13:40.227Z,39.60
2022-10-01T10:16:37.635Z,39.26
2022-10-01T10:19:28.447Z,38.43
2022-10-01T10:22:09.836Z,37.70
2022-10-01T10:24:38.489Z,38.02
2022-10-01T10:27:30.226Z,38.11
2022-10-01T10:30:15.405Z,37.39
2022-10-01T10:32:46.967Z,37.03
2022-10-01T10:35:21.509Z,36.22
2022-10-01T10:37:53.351Z,36.07
2022-10-01T10:40:36.124Z,36.45
2022-10-01T10:43:05.834Z,36.68
2022-10-01T10:45:38.472Z,35.82
2022-10-01T10:48:15.011Z,35.85
2022-10-01T10:50:45.059Z,34.94
2022-10-01T10:53:21.801Z,35.38
2022-10-01T10:55:55.805Z,35.42
2022-10-01T10:58:45.030Z,35.04
2022-10-01T11:01:17.741Z,35.23
2022-10-01T11:03:56.697Z,36.23
2022-10-01T11:06:24.920Z,36.43
2022-10-01T11:09:11.641Z,36.10
2022-10-01T11:11:49.488Z,35.78
2022-10-01T11:14:51.728Z,36.10
2022-10-01T11:17:49.050Z,35.64
2022-10-01T11:20:23.442Z,35.38
2022-10-01T11:23:13.717Z,35.44
2022-10-01T11:26:03.629Z,35.98
2022-10-01T11:28:59.939Z,36.30
2022-10-01T11:32:23.269Z,36.54
2022-10-01T11:35:35.142Z,36.89
2022-10-01T11:38:32.255Z,36.69
2022-10-01T11:41:35.339Z,36.50
2022-10-01T11:44:06.159Z,36.81
2022-10-01T11:47:23.027Z,36.79
2022-10-01T11:50:01.433Z,37.05
2022-10-01T11:52:56.080Z,37.32
2022-10-01T11:55:58.195Z,37.11
2022-10-01T11:58:52.355Z,37.47
2022-10-01T12:02:06.824Z,38.02
2022-10-01T12:04:45.710Z,38.11
2022-10-01T12:07:26.546Z,38.35
2022-10-01T12:10:20.237Z,38.49
2022-10-01T12:13:04.069Z,38.65
2022-10-01T12:15:50.213Z,38.72
2022-10-01T12:18:50.231Z,38.83
2022-10-01T12:21:26.834Z,38.99
2022-10-01T12:24:10.757Z,39.05
2022-10-01T12:26:49.420Z,39.39
2022-10-01T12:29:24.999Z,39.39
2022-10-01T12:32:19.421Z,39.30
2022-10-01T12:35:18.899Z,39.16
2022-10-01T12:38:09.720Z,39.03
2022-10-01T12:40:45.363Z,39.23
2022-10-01T12:43:43.754Z,39.30
2022-10-01T12:46:34.190Z,39.46
2022-10-01T12:49:24.394Z,39.80
2022-10-01T12:52:33.378Z,39.99
2022-10-01T12:55:17.608Z,40.13
2022-10-01T12:58:22.964Z,40.17
2022-10-01T13:01:18.914Z,40.27
2022-10-01T13:04:03.176Z,40.34
2022-10-01T13:06:40.398Z,40.56
2022-10-01T13:09:38.460Z,40.72
2022-10-01T13:12:17.124Z,40.88
2022-10-01T13:14:46.207Z,41.13
2022-10-01T13:17:23.782Z,41.33
2022-10-01T13:20:03.560Z,41.34
2022-10-01T13:22:49.204Z,41.39
2022-10-01T13:25:30.753Z,41.30
2022-10-01T13:28:11.611Z,41.41
2022-10-01T13:30:58.837Z,41.32
2022-10-01T13:33:32.024Z,41.50
2022-10-01T13:36:02.554Z,41.65
2022-10-01T13:38:42.433Z,41.77
2022-10-01T13:41:20.853Z,42.10
2022-10-01T13:43:58.009Z,41.96
2022-10-01T13:46:30.855Z,41.93
2022-10-01T13:49:27.252Z,41.94
2022-10-01T13:51:55.732Z,42.27
2022-10-01T13:54:47.241Z,42.41
2022-10-01T13:57:36.894Z,42.43
2022-10-01T14:00:47.862Z,42.38
2022-10-01T14:03:37.611Z,42.66
2022-10-01T14:06:13.912Z,42.81
2022-10-01T14:09:09.079Z,42.91
2022-10-01T14:11:56.988Z,42.96
2022-10-01T14:15:05.868Z,43.10
2022-10-01T14:17:35.946Z,43.19
2022-10-01T14:20:13.253Z,43.21
2022-10-01T14:23:14.187Z,43.35
2022-10-01T14:25:53.536Z,43.76
2022-10-01T14:28:41.649Z,43.74
2022-10-01T14:31:28.698Z,43.84
2022-10-01T14:34:33.637Z,44.05
2022-10-01T14:37:04.598Z,44.21
2022-10-01T14:39:32.968Z,44.29
2022-10-01T14:42:16.522Z,44.53
2022-10-01T14:44:46.878Z,44.56
2022-10-01T14:47:21.644Z,44.52
2022-10-01T14:49:50.184Z,44.66
2022-10-01T14:52:21.354Z,44.76
2022-10-01T14:54:55.905Z,44.89
2022-10-01T14:57:38.455Z,44.88
2022-10-01T15:00:20.326Z,45.15
2022-10-01T15:03:03.128Z,45.17
2022-10-01T15:05:35.645Z,45.30
2022-10-01T15:08:16.219Z,45.28
2022-10-01T15:10:57.946Z,45.60
2022-10-01T15:13:34.599Z,45.75
2022-10-01T15:16:03.562Z,45.83
2022-10-01T15:18:32.209Z,46.09
2022-10-01T15:21:07.581Z,46.08
2022-10-01T15:23:43.841Z,46.28
2022-10-01T15:26:18.150Z,46.59
2022-10-01T15:28:45.751Z,46.43
2022-10-01T15:31:16.234Z,46.78
2022-10-01T15:33:45.755Z,46.74
2022-10-01T15:36:18.116Z,46.87
2022-10-01T15:38:47.359Z,47.04
2022-10-01T15:41:31.845Z,47.10
2022-10-01T15:44:06.051Z,47.25
2022-10-01T15:46:36.208Z,47.22
2022-10-01T15:49:15.799Z,47.27
2022-10-01T15:52:12.306Z,47.38
2022-10-01T15:54:43.890Z,47.52
2022-10-01T15:57:23.731Z,47.55
2022-10-01T15:59:55.880Z,48.00
2022-10-01T16:02:27.114Z,47.83
2022-10-01T16:05:04.818Z,47.88
2022-10-01T16:07:35.941Z,48.17
2022-10-01T16:10:45.648Z,48.26
2022-10-01T16:13:52.504Z,48.29
2022-10-01T16:16:25.862Z,48.39
2022-10-01T16:19:28.503Z,48.44
2022-10-01T16:22:39.474Z,48.52
2022-10-01T16:25:25.646Z,48.62
2022-10-01T16:28:21.434Z,48.79
2022-10-01T16:30:51.071Z,48.97
2022-10-01T16:33:20.023Z,49.04
2022-10-01T16:35:48.286Z,49.19
2022-10-01T16:38:18.555Z,49.28
2022-10-01T16:40:49.600Z,49.43
2022-10-01T16:43:25.788Z,49.70
2022-10-01T16:45:55.925Z,49.75
2022-10-01T16:48:24.258Z,49.88
2022-10-01T16:50:58.885Z,49.83
2022-10-01T16:53:28.445Z,49.98
2022-10-01T16:55:57.815Z,50.09
2022-10-01T16:58:25.407Z,50.29
2022-10-01T17:00:55.189Z,50.28
2022-10-01T17:03:26.681Z,50.57
2022-10-01T17:05:55.865Z,50.80
2022-10-01T17:08:23.983Z,50.94
2022-10-01T17:10:58.247Z,50.96
2022-10-01T17:13:33.903Z,51.10
2022-10-01T17:16:05.337Z,51.22
2022-10-01T17:18:33.146Z,51.40
2022-10-01T17:21:06.346Z,51.25
2022-10-01T17:23:35.963Z,51.56
2022-10-01T17:26:08.628Z,51.42
2022-10-01T17:28:36.368Z,51.50
2022-10-01T17:31:07.455Z,51.50
2022-10-01T17:33:37.657Z,51.82
2022-10-01T17:36:08.477Z,52.01
2022-10-01T17:38:37.385Z,52.03
2022-10-01T17:41:05.823Z,52.09
2022-10-01T17:43:38.862Z,52.25
2022-10-01T17:46:06.552Z,52.36
2022-10-01T17:48:35.920Z,52.39
2022-10-01T17:51:07.729Z,52.25
2022-10-01T17:53:42.292Z,52.42
2022-10-01T17:56:15.537Z,52.64
2022-10-01T17:58:46.182Z,52.63
2022-10-01T18:01:21.678Z,52.76
2022-10-01T18:03:55.712Z,52.86
2022-10-01T18:06:24.430Z,52.77
2022-10-01T18:08:56.290Z,53.31
2022-10-01T18:11:28.952Z,53.06
2022-10-01T18:13:59.082Z,53.04
2022-10-01T18:16:27.513Z,53.28
2022-10-01T18:21:48.511Z,53.54
2022-10-01T18:24:16.792Z,53.82
2022-10-01T18:26:45.851Z,53.82
2022-10-01T18:29:25.747Z,53.82
2022-10-01T18:32:01.870Z,53.94
2022-10-01T18:34:38.619Z,54.10
2022-10-01T18:37:43.638Z,53.96
2022-10-01T18:40:20.258Z,54.32
2022-10-01T18:43:25.165Z,54.40
2022-10-01T18:46:07.943Z,54.59
2022-10-01T18:49:17.500Z,54.74
2022-10-01T18:52:18.726Z,54.87
2022-10-01T18:55:20.948Z,54.87
2022-10-01T18:58:19.629Z,55.01
2022-10-01T19:01:13.723Z,54.99
2022-10-01T19:04:22.278Z,55.13
2022-10-01T19:07:31.288Z,55.45
2022-10-01T19:10:06.372Z,55.72
2022-10-01T19:13:30.523Z,55.51
2022-10-01T19:16:10.118Z,55.86
2022-10-01T19:18:58.392Z,56.03
2022-10-01T19:21:51.755Z,56.25
2022-10-01T19:25:09.511Z,56.60
2022-10-01T19:28:15.747Z,56.90
2022-10-01T19:31:06.431Z,56.81
2022-10-01T19:37:13.213Z,56.95
2022-10-01T19:39:50.395Z,56.92
2022-10-01T19:42:29.649Z,57.04
2022-10-01T19:45:07.184Z,57.07
2022-10-01T19:48:16.476Z,56.99
2022-10-01T19:51:08.297Z,57.31
2022-10-01T19:53:42.230Z,57.36
2022-10-01T19:56:17.777Z,57.38
2022-10-01T19:58:48.240Z,57.28
2022-10-01T20:01:25.347Z,57.33
2022-10-01T20:04:01.466Z,57.47
2022-10-01T20:06:37.840Z,57.61
2022-10-01T20:09:16.282Z,57.63
2022-10-01T20:12:26.942Z,57.80
2022-10-01T20:15:34.517Z,57.98
2022-10-01T20:18:36.984Z,58.20
2022-10-01T20:21:20.363Z,58.36
2022-10-01T20:23:54.922Z,58.24
2022-10-01T20:26:38.826Z,58.39
2022-10-01T20:29:18.175Z,58.33
2022-10-01T20:32:07.244Z,58.46
2022-10-01T20:35:24.632Z,58.63
2022-10-01T20:38:04.490Z,58.78
2022-10-01T20:40:52.296Z,58.74
2022-10-01T20:43:32.034Z,58.79
2022-10-01T20:46:11.311Z,58.85
2022-10-01T20:48:50.534Z,59.01
2022-10-01T20:51:25.901Z,59.13
2022-10-01T20:54:06.188Z,59.16
2022-10-01T20:56:50.896Z,59.15
2022-10-01T20:59:43.034Z,59.32
2022-10-01T21:02:51.364Z,59.38
2022-10-01T21:05:24.388Z,59.32
2022-10-01T21:07:58.388Z,59.42
2022-10-01T21:10:42.832Z,59.49
2022-10-01T21:13:20.395Z,59.67
2022-10-01T21:15:58.820Z,59.61
2022-10-01T21:19:07.795Z,59.65
2022-10-01T21:21:56.775Z,59.91
2022-10-01T21:24:56.079Z,59.75
2022-10-01T21:37:59.911Z,60.03
2022-10-01T21:40:44.736Z,60.32
2022-10-01T21:43:33.600Z,60.26
2022-10-01T21:46:32.353Z,60.34
2022-10-01T21:49:29.508Z,60.80
2022-10-01T21:52:11.786Z,61.00
2022-10-01T21:55:20.061Z,60.69
2022-10-01T21:58:14.350Z,60.76
2022-10-01T22:00:52.695Z,61.03
2022-10-01T22:03:39.087Z,61.15
2022-10-01T22:06:21.690Z,60.99
2022-10-01T22:09:22.873Z,61.09
2022-10-01T22:11:58.811Z,61.49
2022-10-01T22:14:30.562Z,61.20
2022-10-01T22:17:11.073Z,61.41
2022-10-01T22:19:46.751Z,61.80
2022-10-01T22:22:22.865Z,61.64
2022-10-01T22:24:57.686Z,61.83
2022-10-01T22:27:46.928Z,61.88
2022-10-01T22:30:27.224Z,61.91
2022-10-01T22:33:05.086Z,61.94
2022-10-01T22:35:40.440Z,62.14
2022-10-01T22:38:31.295Z,62.24
2022-10-01T22:41:31.694Z,62.40
2022-10-01T22:44:18.582Z,62.39
2022-10-01T22:47:09.792Z,62.66
2022-10-01T22:50:16.971Z,62.47
2022-10-01T22:53:21.781Z,62.62
2022-10-01T22:55:50.654Z,62.72
2022-10-01T22:58:53.193Z,62.82
2022-10-01T23:02:19.185Z,63.03
2022-10-01T23:05:10.631Z,63.09
2022-10-01T23:08:09.323Z,62.99
2022-10-01T23:10:41.596Z,63.20
2022-10-01T23:13:29.951Z,63.30
2022-10-01T23:16:15.971Z,63.55
2022-10-01T23:19:11.355Z,63.50
2022-10-01T23:22:20.631Z,63.55
2022-10-01T23:25:29.661Z,63.75
2022-10-01T23:28:13.757Z,63.81
2022-10-01T23:31:09.779Z,63.72
2022-10-01T23:33:48.016Z,64.02
2022-10-01T23:36:47.549Z,64.07
2022-10-01T23:39:28.569Z,64.43
2022-10-01T23:42:14.810Z,64.14
2022-10-01T23:45:03.606Z,64.36
2022-10-01T23:47:44.183Z,64.70
2022-10-01T23:50:31.884Z,64.50
2022-10-01T23:53:22.283Z,65.03
2022-10-01T23:56:29.953Z,64.92
2022-10-01T23:59:11.120Z,64.89
